ilmateenistus.ee keskkonnaagentuur.ee
EETN Tallinn
FTEO31 EETN 270500
TAF EETN 270530Z 2706/2806 12012KT 9999 SCT040 BECMG 2800/2802
    BKN025=

METAR EETN 271020Z 14009KT CAVOK 15/08 Q1008 NOSIG=
Tallinn
EEKA Kärdla
METAR EEKA 271020Z NIL=
Kärdla
EEKE Kuressaare
METAR EEKE 271020Z 13012KT CAVOK 15/11 Q1005=
Kuressaare
EEPU Pärnu
METAR EEPU 271020Z AUTO 10009KT 060V130 9999 NCD 15/08 Q1007=
Pärnu
EETU Tartu
METAR EETU 271020Z AUTO 10009KT 080V140 9999 R08/P2000N FEW072/// 13/08 Q1009=
Tartu
EEEI Ämari
METAR EEEI 270950Z 13008KT 100V160 CAVOK 16/07 Q1008 NOSIG=
Ämari